createdAt,value
2022-07-29T00:15:32.931Z,20.28
2022-07-29T00:35:32.878Z,20.04
2022-07-29T00:55:32.809Z,19.84
2022-07-29T01:15:32.885Z,19.90
2022-07-29T01:35:32.798Z,19.81
2022-07-29T01:55:32.749Z,19.73
2022-07-29T02:15:32.793Z,19.61
2022-07-29T02:35:32.717Z,19.42
2022-07-29T02:55:32.654Z,19.45
2022-07-29T03:15:32.691Z,18.99
2022-07-29T03:35:32.660Z,18.96
2022-07-29T03:55:32.573Z,18.73
2022-07-29T04:15:32.613Z,18.73
2022-07-29T04:35:32.559Z,18.73
2022-07-29T04:55:32.505Z,18.94
2022-07-29T05:15:32.542Z,19.21
2022-07-29T05:35:32.484Z,19.62
2022-07-29T05:55:32.423Z,19.97
2022-07-29T06:15:32.517Z,20.31
2022-07-29T06:35:32.409Z,20.50
2022-07-29T06:55:32.350Z,20.93
2022-07-29T07:15:32.389Z,22.73
2022-07-29T07:35:32.323Z,23.45
2022-07-29T07:55:32.264Z,23.97
2022-07-29T08:15:32.294Z,24.28
2022-07-29T08:35:32.234Z,25.10
2022-07-29T08:55:32.173Z,26.12
2022-07-29T09:15:32.212Z,25.85
2022-07-29T09:35:32.143Z,22.43
2022-07-29T09:55:32.085Z,24.85
2022-07-29T10:15:32.124Z,25.42
2022-07-29T10:35:32.055Z,25.57
2022-07-29T10:55:31.998Z,26.20
2022-07-29T11:15:32.070Z,27.06
2022-07-29T11:35:36.721Z,27.75
2022-07-29T11:55:31.904Z,27.30
2022-07-29T12:15:31.939Z,26.54
2022-07-29T12:35:31.886Z,26.01
2022-07-29T12:55:31.812Z,26.87
2022-07-29T13:15:31.846Z,26.04
2022-07-29T13:35:31.795Z,25.54
2022-07-29T13:55:31.716Z,24.94
2022-07-29T14:15:31.746Z,24.72
2022-07-29T14:35:31.688Z,24.28
2022-07-29T14:55:31.621Z,24.12
2022-07-29T15:15:31.711Z,24.11
2022-07-29T15:55:31.530Z,23.88
2022-07-29T16:15:31.552Z,23.97
2022-07-29T16:35:31.482Z,23.93
2022-07-29T16:55:31.518Z,23.80
2022-07-29T17:15:31.449Z,23.58
2022-07-29T17:35:31.373Z,23.09
2022-07-29T17:55:31.407Z,19.70
2022-07-29T18:15:31.338Z,18.87
2022-07-29T18:35:31.373Z,18.84
2022-07-29T18:55:31.305Z,18.91
2022-07-29T19:15:31.333Z,18.87
2022-07-29T19:35:31.270Z,18.55
2022-07-29T19:55:31.196Z,18.61
2022-07-29T20:15:31.230Z,18.58
2022-07-29T20:35:31.162Z,18.57
2022-07-29T20:55:31.195Z,18.40
2022-07-29T21:15:31.125Z,18.34
2022-07-29T21:35:31.062Z,18.29
2022-07-29T21:55:31.096Z,18.38
2022-07-29T22:15:31.035Z,18.39
2022-07-29T22:35:31.057Z,18.51
2022-07-29T22:55:30.986Z,18.24
2022-07-29T23:15:31.016Z,18.13
2022-07-29T23:35:30.955Z,18.11
2022-07-29T23:55:30.887Z,18.11
